Time;durP1;ratioP1;P1;durP2;ratioP2;P2;SDS_P1;SDS_P2;PMS_P1;PMS_P2;Temp;Humidity;BMP_temperature;BMP_pressure;BME280_temperature;BME280_humidity;BME280_pressure;Samples;Min_cycle;Max_cycle;Signal;HPM_P1;HPM_P2
2023/03/19 00:00:23;;;;;;;110.13;41.07;;;;;;;6.47;87.30;100649.00;4808609;59;1141028;-73
2023/03/19 00:05:31;;;;;;;104.03;44.17;;;;;;;6.38;87.34;100645.15;4863452;58;1140982;-69
2023/03/19 00:10:40;;;;;;;83.60;35.23;;;;;;;6.38;87.33;100645.15;4936188;58;1142999;-75
2023/03/19 00:15:46;;;;;;;83.43;36.97;;;;;;;6.42;87.82;100641.38;4899284;58;1140979;-74
2023/03/19 00:20:52;;;;;;;117.20;45.57;;;;;;;6.34;87.34;100645.79;5040473;57;1141047;-71
2023/03/19 00:26:00;;;;;;;121.80;47.03;;;;;;;6.17;87.32;100651.63;5096476;56;1141044;-70
2023/03/19 00:31:15;;;;;;;123.93;48.50;;;;;;;6.16;88.89;100652.56;5126101;56;1141024;-75
2023/03/19 00:36:22;;;;;;;126.02;47.15;;;;;;;6.07;89.11;100650.00;5103080;56;1141190;-72
2023/03/19 00:41:31;;;;;;;134.43;53.53;;;;;;;5.89;89.20;100645.32;5093506;56;1142572;-73
2023/03/19 00:46:36;;;;;;;123.40;44.97;;;;;;;5.93;90.32;100648.62;5041918;57;1140889;-73
2023/03/19 00:51:44;;;;;;;123.10;45.63;;;;;;;5.88;90.04;100648.88;5022416;56;1140867;-76
2023/03/19 00:56:51;;;;;;;126.70;48.50;;;;;;;5.81;90.05;100652.73;5022410;56;1140805;-71
2023/03/19 01:01:57;;;;;;;124.90;44.37;;;;;;;5.71;90.43;100658.58;5041761;56;1140895;-69
2023/03/19 01:07:03;;;;;;;116.50;42.47;;;;;;;5.74;91.49;100659.27;5022514;57;1140867;-70
2023/03/19 01:12:09;;;;;;;97.43;40.80;;;;;;;5.74;92.24;100634.34;5022262;56;1143096;-74
2023/03/19 01:17:16;;;;;;;95.03;41.50;;;;;;;5.91;92.98;100648.71;5040337;57;1225099;-68
2023/03/19 01:22:22;;;;;;;106.30;43.43;;;;;;;5.96;93.22;100645.34;5022110;57;1139030;-74
2023/03/19 01:27:29;;;;;;;119.90;51.25;;;;;;;5.97;94.36;100641.78;5021672;57;1140792;-71
2023/03/19 01:32:36;;;;;;;107.47;48.02;;;;;;;5.95;94.05;100640.20;5041647;57;1141228;-75
2023/03/19 01:37:55;;;;;;;94.22;41.08;;;;;;;5.87;94.48;100638.42;4702594;61;1141058;-78
2023/03/19 01:43:25;;;;;;;86.43;37.37;;;;;;;5.88;95.75;100641.44;4691623;60;1138981;-73
2023/03/19 01:49:03;;;;;;;74.03;34.65;;;;;;;5.86;97.00;100645.45;4713505;60;1139470;-70
2023/03/19 01:54:14;;;;;;;88.37;35.80;;;;;;;5.86;96.71;100645.45;4763534;60;1141207;-68
2023/03/19 01:59:26;;;;;;;93.20;44.27;;;;;;;5.89;97.16;100639.22;4779010;60;1141132;-74
2023/03/19 02:04:47;;;;;;;60.13;29.93;;;;;;;5.93;97.57;100646.00;4721518;60;1139016;-74
2023/03/19 02:09:55;;;;;;;80.23;33.50;;;;;;;5.94;97.13;100647.23;4760975;60;1138957;-69
2023/03/19 02:15:01;;;;;;;61.70;28.87;;;;;;;5.97;97.76;100641.78;4976647;56;1139016;-71
2023/03/19 02:20:30;;;;;;;55.33;27.70;;;;;;;6.00;97.47;100642.93;5105882;56;1138896;-72
2023/03/19 02:25:49;;;;;;;53.67;24.73;;;;;;;5.95;96.80;100637.58;5083363;56;1139105;-71
2023/03/19 02:30:56;;;;;;;63.80;26.30;;;;;;;5.84;96.29;100628.09;5093780;56;1139085;-71
2023/03/19 02:36:06;;;;;;;47.83;24.40;;;;;;;5.69;96.50;100626.33;5086230;56;1138877;-71
2023/03/19 02:41:12;;;;;;;58.23;24.32;;;;;;;5.64;97.11;100622.67;5079097;56;1138865;-73
2023/03/19 02:46:20;;;;;;;57.07;24.47;;;;;;;5.65;97.58;100635.67;4928082;57;1138976;-72
2023/03/19 02:51:26;;;;;;;65.72;29.02;;;;;;;5.69;98.09;100638.14;4928013;57;1140895;-71
2023/03/19 02:56:34;;;;;;;59.50;27.05;;;;;;;5.65;98.02;100638.80;4947873;57;1141121;-74
2023/03/19 03:01:41;;;;;;;63.77;32.00;;;;;;;5.62;98.27;100643.74;4928697;57;1138884;-72
2023/03/19 03:06:47;;;;;;;63.43;32.07;;;;;;;5.63;98.73;100652.46;4928618;57;1139017;-67
2023/03/19 03:11:53;;;;;;;60.50;28.23;;;;;;;5.61;98.52;100645.98;4948153;57;1138922;-71
2023/03/19 03:16:59;;;;;;;61.48;27.52;;;;;;;5.46;98.41;100657.78;4928489;57;1138895;-72
2023/03/19 03:22:05;;;;;;;49.83;24.83;;;;;;;5.32;98.88;100652.44;4928685;58;1138945;-77
2023/03/19 03:27:11;;;;;;;53.77;25.13;;;;;;;5.29;100.00;100666.55;4928451;57;1140971;-70
2023/03/19 03:32:17;;;;;;;57.93;26.93;;;;;;;5.26;100.00;100671.95;4947019;57;1142993;-74
2023/03/19 03:37:22;;;;;;;58.53;29.10;;;;;;;5.29;100.00;100669.17;4928432;57;1145028;-73
2023/03/19 03:42:28;;;;;;;57.53;28.73;;;;;;;5.36;100.00;100679.70;4957681;56;1140944;-69
2023/03/19 03:47:35;;;;;;;69.58;32.35;;;;;;;5.38;100.00;100676.53;5039209;56;1141006;-71
2023/03/19 03:52:42;;;;;;;62.05;30.45;;;;;;;5.43;100.00;100685.02;5032563;56;1140917;-70
2023/03/19 03:57:48;;;;;;;61.43;28.67;;;;;;;5.40;99.89;100683.02;5032886;56;1140831;-68
2023/03/19 04:02:54;;;;;;;69.70;32.77;;;;;;;5.21;98.83;100694.47;5048519;56;1139045;-69
2023/03/19 04:08:00;;;;;;;62.97;30.47;;;;;;;5.10;99.66;100686.33;4981509;56;1138796;-72
2023/03/19 04:13:06;;;;;;;58.47;27.53;;;;;;;5.07;99.82;100689.11;4968311;56;1138852;-71
2023/03/19 04:18:12;;;;;;;56.30;28.90;;;;;;;5.13;100.00;100686.17;4970576;57;1140846;-73
2023/03/19 04:23:17;;;;;;;63.43;30.97;;;;;;;5.14;100.00;100680.01;5029877;56;1143057;-73
2023/03/19 04:28:24;;;;;;;64.77;32.80;;;;;;;5.21;100.00;100673.95;5032169;57;1140918;-73
2023/03/19 04:33:30;;;;;;;71.30;32.40;;;;;;;5.18;100.00;100676.30;5052060;57;1140924;-72
2023/03/19 04:38:37;;;;;;;65.47;32.28;;;;;;;5.17;100.00;100675.92;5022772;56;1141131;-74
2023/03/19 04:43:43;;;;;;;60.77;30.37;;;;;;;5.18;100.00;100672.84;5033079;56;1141148;-72
2023/03/19 04:48:49;;;;;;;67.17;32.13;;;;;;;5.16;100.00;100676.00;5112165;56;1140941;-72
2023/03/19 04:53:55;;;;;;;68.50;27.87;;;;;;;5.08;100.00;100682.09;4958920;58;1141000;-69
2023/03/19 04:59:01;;;;;;;57.47;26.10;;;;;;;5.04;100.00;100673.53;5096005;56;1140907;-66
2023/03/19 05:04:08;;;;;;;64.63;27.87;;;;;;;5.04;100.00;100673.53;5095953;56;1143028;-70
2023/03/19 05:09:15;;;;;;;72.87;29.60;;;;;;;5.01;100.00;100672.87;4944803;57;1141028;-67
2023/03/19 05:14:22;;;;;;;68.20;31.63;;;;;;;5.01;100.00;100671.09;4953276;57;1140919;-68
2023/03/19 05:19:42;;;;;;;78.37;33.03;;;;;;;4.99;100.00;100661.16;4912829;57;1140996;-68
2023/03/19 05:24:51;;;;;;;62.87;30.43;;;;;;;4.91;100.00;100660.69;4876812;59;1140818;-70
2023/03/19 05:29:59;;;;;;;58.80;28.57;;;;;;;4.75;100.00;100663.25;4878620;59;1141045;-68
2023/03/19 05:35:18;;;;;;;54.00;26.40;;;;;;;4.78;100.00;100662.25;4804934;58;1140876;-71
2023/03/19 05:40:26;;;;;;;60.87;29.50;;;;;;;4.85;99.06;100675.44;4875632;58;1143129;-73
2023/03/19 05:45:33;;;;;;;73.07;32.80;;;;;;;4.91;99.24;100677.72;4901365;58;1141120;-71
2023/03/19 05:50:41;;;;;;;67.90;31.83;;;;;;;4.98;99.79;100678.27;5069970;56;1138974;-64
2023/03/19 05:55:55;;;;;;;56.63;30.27;;;;;;;5.04;100.00;100684.52;4994124;57;1139116;-64
2023/03/19 06:01:02;;;;;;;71.47;33.23;;;;;;;5.12;100.00;100692.81;5031242;56;1141007;-69
2023/03/19 06:06:09;;;;;;;81.53;34.33;;;;;;;5.16;100.00;100701.75;5073282;56;1140991;-70
2023/03/19 06:11:17;;;;;;;67.07;30.63;;;;;;;5.19;100.00;100703.38;5088190;56;1140986;-72
2023/03/19 06:16:24;;;;;;;68.77;28.53;;;;;;;5.17;100.00;100701.29;5051639;56;1140967;-67
2023/03/19 06:21:32;;;;;;;59.50;28.38;;;;;;;5.27;100.00;100711.20;5126163;56;1142961;-68
2023/03/19 06:26:41;;;;;;;72.33;29.13;;;;;;;5.39;100.00;100711.02;5105922;56;1143122;-70
2023/03/19 06:31:49;;;;;;;66.93;30.40;;;;;;;5.53;100.00;100719.45;5106041;56;1140898;-69
2023/03/19 06:37:00;;;;;;;74.80;36.83;;;;;;;5.62;100.00;100729.48;5124395;56;1140934;-70
2023/03/19 06:42:07;;;;;;;72.50;35.15;;;;;;;5.77;100.00;100726.48;5126567;56;1140860;-68
2023/03/19 06:47:14;;;;;;;62.93;31.40;;;;;;;5.96;100.00;100697.84;5106620;56;1141138;-70
2023/03/19 06:52:21;;;;;;;77.10;34.60;;;;;;;6.17;100.00;100732.56;5106789;56;1140879;-64
2023/03/19 06:57:28;;;;;;;61.67;31.03;;;;;;;6.31;100.00;100723.44;5126583;56;1141140;-66
2023/03/19 07:02:35;;;;;;;58.10;27.83;;;;;;;6.46;100.00;100728.76;5037671;56;1141056;-71
2023/03/19 07:07:42;;;;;;;55.67;27.97;;;;;;;6.62;100.00;100732.20;5021776;57;1140986;-67
2023/03/19 07:12:48;;;;;;;55.00;26.33;;;;;;;6.76;100.00;100732.23;5042191;56;1140948;-75
2023/03/19 07:17:56;;;;;;;50.40;25.83;;;;;;;7.10;98.55;100728.94;5023848;56;1140983;-85
2023/03/19 07:23:03;;;;;;;54.00;27.20;;;;;;;7.10;98.55;100728.94;5041669;56;1141000;-77
2023/03/19 07:28:08;;;;;;;57.03;28.23;;;;;;;7.30;97.75;100736.48;5023608;56;1141018;-78
2023/03/19 07:33:17;;;;;;;57.30;27.23;;;;;;;7.46;96.76;100745.62;5071789;56;1139175;-80
2023/03/19 07:38:22;;;;;;;46.87;24.20;;;;;;;7.51;95.71;100740.89;5042798;56;1138871;-77
2023/03/19 07:43:28;;;;;;;50.37;26.77;;;;;;;7.54;94.11;100744.66;4981164;57;1138919;-78
2023/03/19 07:48:34;;;;;;;54.15;25.02;;;;;;;7.57;94.56;100745.80;4946954;58;1138877;-79
2023/03/19 07:53:40;;;;;;;48.33;23.87;;;;;;;7.71;92.66;100755.00;5057068;56;1139278;-83
2023/03/19 07:58:46;;;;;;;48.70;24.83;;;;;;;7.85;92.68;100755.45;4984566;57;1138609;-80
2023/03/19 08:03:53;;;;;;;52.77;27.03;;;;;;;8.11;93.26;100752.86;5019069;56;1140831;-82
2023/03/19 08:08:59;;;;;;;48.23;24.03;;;;;;;8.41;93.24;100736.05;4984637;57;1140812;-76
2023/03/19 08:14:06;;;;;;;51.33;26.57;;;;;;;8.83;92.91;100731.08;4984428;57;1140989;-81
2023/03/19 08:19:12;;;;;;;47.10;24.63;;;;;;;9.23;90.36;100729.69;4984607;57;1140916;-78
2023/03/19 08:24:18;;;;;;;43.70;20.80;;;;;;;9.55;89.03;100722.18;5058691;56;1140730;-74
2023/03/19 08:29:26;;;;;;;43.08;21.60;;;;;;;9.69;86.78;100726.86;4997276;57;1143119;-77
2023/03/19 08:34:33;;;;;;;40.63;21.45;;;;;;;9.72;83.38;100723.16;4856930;58;1140804;-79
2023/03/19 08:39:39;;;;;;;44.30;21.33;;;;;;;9.75;83.20;100728.23;5033092;57;1140823;-80
2023/03/19 08:44:46;;;;;;;46.73;21.63;;;;;;;9.72;82.86;100721.37;5066656;56;1141003;-80
2023/03/19 08:49:52;;;;;;;38.07;20.77;;;;;;;9.83;84.01;100730.69;4932167;58;1141203;-73
2023/03/19 08:54:58;;;;;;;50.90;22.40;;;;;;;9.94;83.09;100729.91;4981914;58;1140813;-77
2023/03/19 09:00:06;;;;;;;49.80;21.52;;;;;;;10.06;82.03;100728.21;4931987;57;1140861;-76
2023/03/19 09:05:12;;;;;;;35.45;20.08;;;;;;;10.09;81.93;100728.81;5036134;56;1142866;-80
2023/03/19 09:10:18;;;;;;;43.57;20.90;;;;;;;10.11;81.46;100720.30;5035161;57;1143114;-72
2023/03/19 09:15:25;;;;;;;38.00;20.60;;;;;;;10.13;81.77;100721.52;5012537;57;1142918;-76
2023/03/19 09:20:31;;;;;;;34.10;19.40;;;;;;;10.21;80.34;100726.66;4909359;57;1143033;-81
2023/03/19 09:25:36;;;;;;;38.30;20.82;;;;;;;10.32;80.08;100723.22;4969425;57;1143062;-80
2023/03/19 09:30:42;;;;;;;41.50;20.92;;;;;;;10.41;79.44;100726.98;4870529;58;1143065;-78
2023/03/19 09:35:53;;;;;;;43.23;21.13;;;;;;;10.60;80.74;100723.34;4930285;58;1142958;-74
2023/03/19 09:41:28;;;;;;;35.17;18.80;;;;;;;10.73;79.28;100724.11;4969101;57;1143223;-86
2023/03/19 09:46:56;;;;;;;45.33;21.57;;;;;;;10.78;76.58;100726.42;4806199;59;1142951;-77
2023/03/19 09:52:21;;;;;;;48.23;22.77;;;;;;;10.84;75.98;100733.91;4795076;59;1143081;-77
2023/03/19 09:57:28;;;;;;;40.03;19.63;;;;;;;10.91;73.62;100732.47;4795350;60;1142972;-77
2023/03/19 10:02:43;;;;;;;40.07;20.87;;;;;;;11.03;72.96;100732.02;4814238;60;1142976;-73
2023/03/19 10:08:16;;;;;;;49.07;23.37;;;;;;;11.17;73.03;100746.36;4796170;58;1142930;-78
2023/03/19 10:14:03;;;;;;;43.03;21.07;;;;;;;11.25;73.26;100742.19;4864870;58;1142888;-83
2023/03/19 10:19:14;;;;;;;34.60;19.67;;;;;;;11.45;74.31;100737.16;4930435;58;1143041;-79
2023/03/19 10:24:31;;;;;;;33.53;18.77;;;;;;;11.58;70.46;100732.59;4869506;57;1142920;-82
2023/03/19 10:29:36;;;;;;;42.30;20.90;;;;;;;11.62;68.58;100734.86;4893957;58;1143084;-78
2023/03/19 10:34:47;;;;;;;45.63;21.35;;;;;;;11.73;71.85;100727.41;4983306;57;1142987;-85
2023/03/19 10:39:59;;;;;;;36.00;19.30;;;;;;;11.90;71.64;100738.03;5016369;56;1142945;-82
2023/03/19 10:45:30;;;;;;;43.90;20.27;;;;;;;12.03;70.87;100724.16;4932077;58;1142855;-75
2023/03/19 10:50:50;;;;;;;45.00;19.73;;;;;;;12.15;68.58;100714.36;4946834;58;1142854;-76
2023/03/19 10:56:00;;;;;;;35.87;20.03;;;;;;;12.36;68.03;100714.44;4981945;57;1142877;-75
2023/03/19 11:01:10;;;;;;;41.83;21.27;;;;;;;12.54;66.84;100713.73;4883875;57;1142878;-85
2023/03/19 11:06:21;;;;;;;37.35;19.80;;;;;;;12.67;66.35;100711.78;4896235;57;1143102;-78
2023/03/19 11:11:49;;;;;;;29.45;18.27;;;;;;;12.83;65.86;100717.95;4910100;58;1143023;-76
2023/03/19 11:17:06;;;;;;;32.80;16.33;;;;;;;12.99;66.43;100726.79;4878569;58;1142879;-73
2023/03/19 11:22:21;;;;;;;38.80;21.30;;;;;;;13.13;65.82;100723.00;4907695;58;1143204;-74
2023/03/19 11:27:32;;;;;;;32.77;18.63;;;;;;;13.20;66.47;100722.36;4900827;57;1143288;-87
2023/03/19 11:33:08;;;;;;;35.92;18.52;;;;;;;13.24;66.38;100717.64;4938003;58;1142935;-74
2023/03/19 11:38:27;;;;;;;41.53;22.87;;;;;;;13.27;66.00;100715.56;4918615;58;1142982;-76
2023/03/19 11:43:59;;;;;;;30.97;16.48;;;;;;;13.31;64.51;100709.48;4963515;57;1142944;-79
2023/03/19 11:49:40;;;;;;;27.73;16.20;;;;;;;13.37;63.37;100701.00;4998784;57;1143159;-74
2023/03/19 11:55:14;;;;;;;31.60;15.72;;;;;;;13.46;64.12;100690.88;5018584;57;1142907;-79
2023/03/19 12:00:38;;;;;;;35.17;18.55;;;;;;;13.53;62.88;100686.73;4981163;57;1143148;-74
2023/03/19 12:06:06;;;;;;;29.97;16.03;;;;;;;13.57;64.50;100674.03;4912219;58;1143027;-84
2023/03/19 12:11:43;;;;;;;28.73;14.60;;;;;;;13.66;60.99;100681.18;4988908;57;1143276;-82
2023/03/19 12:17:22;;;;;;;30.33;15.73;;;;;;;13.72;61.23;100681.98;4981369;57;1142886;-81
2023/03/19 12:23:06;;;;;;;30.57;15.40;;;;;;;13.75;61.70;100680.36;4854432;57;1142919;-83
2023/03/19 12:28:33;;;;;;;31.83;16.07;;;;;;;13.80;62.49;100683.46;4882691;57;1142997;-82
2023/03/19 12:33:49;;;;;;;31.42;16.82;;;;;;;13.83;61.28;100678.37;4914308;58;1142973;-81
2023/03/19 12:39:08;;;;;;;32.90;17.33;;;;;;;13.81;62.44;100669.20;4836443;57;1143049;-81
2023/03/19 12:44:40;;;;;;;27.10;16.32;;;;;;;13.82;61.75;100668.70;4840131;59;1143110;-82
2023/03/19 12:49:59;;;;;;;28.23;16.17;;;;;;;13.84;62.32;100666.76;4887084;58;1142941;-79
2023/03/19 12:55:27;;;;;;;30.50;16.17;;;;;;;13.88;61.69;100661.53;4910177;58;1143262;-80
2023/03/19 13:00:55;;;;;;;34.97;16.13;;;;;;;13.87;61.29;100672.66;4939649;58;1143112;-81
2023/03/19 13:06:08;;;;;;;24.87;14.83;;;;;;;13.90;60.50;100666.23;4887517;57;1143033;-79
2023/03/19 13:11:25;;;;;;;;;;;;;;;13.92;59.66;100668.23;4870314;58;1142978;-81
2023/03/19 13:17:16;;;;;;;24.20;14.27;;;;;;;13.93;60.62;100664.59;4924428;57;976029;-80
2023/03/19 13:22:26;;;;;;;26.97;16.13;;;;;;;13.95;60.66;100666.15;4918508;57;1140923;-77
2023/03/19 13:27:35;;;;;;;25.17;15.03;;;;;;;13.98;60.61;100665.04;4942132;57;1148961;-85
2023/03/19 13:32:47;;;;;;;27.75;14.87;;;;;;;13.98;58.89;100658.39;4918162;57;1142954;-85
2023/03/19 13:38:00;;;;;;;29.30;14.90;;;;;;;13.99;59.40;100663.58;4922234;58;1142909;-85
2023/03/19 13:43:23;;;;;;;22.32;13.05;;;;;;;14.01;59.09;100662.11;4918654;58;1142923;-84
2023/03/19 13:48:33;;;;;;;23.75;13.28;;;;;;;14.04;59.19;100657.37;4944911;57;1142928;-83
2023/03/19 13:53:44;;;;;;;22.20;12.78;;;;;;;14.04;59.22;100652.53;4866430;58;1142903;-79
2023/03/19 13:58:53;;;;;;;21.68;12.68;;;;;;;14.05;60.19;100646.23;4856326;58;1142921;-78
2023/03/19 14:04:21;;;;;;;23.47;12.67;;;;;;;14.08;60.51;100644.61;4853724;57;1143272;-82
2023/03/19 14:09:43;;;;;;;28.73;13.37;;;;;;;14.09;59.44;100639.16;4838418;59;1143172;-81
2023/03/19 14:15:11;;;;;;;23.33;12.50;;;;;;;14.11;60.57;100639.51;4849193;58;1142992;-79
2023/03/19 14:20:24;;;;;;;24.43;13.08;;;;;;;14.09;59.85;100630.33;4849240;58;1143080;-82
2023/03/19 14:26:04;;;;;;;32.00;16.60;;;;;;;14.06;59.28;100630.60;4849356;59;1143021;-81
2023/03/19 14:31:36;;;;;;;35.90;16.53;;;;;;;14.07;58.86;100630.95;4840057;59;1142837;-82
2023/03/19 14:37:03;;;;;;;41.18;16.67;;;;;;;14.06;59.05;100627.45;4850043;58;1143004;-81
2023/03/19 14:42:27;;;;;;;33.98;14.15;;;;;;;14.05;59.68;100624.44;4855831;58;1143018;-80
2023/03/19 14:47:53;;;;;;;22.13;12.30;;;;;;;14.06;60.03;100626.13;4906788;58;1143027;-81
2023/03/19 14:53:14;;;;;;;47.93;18.53;;;;;;;14.08;59.41;100629.98;4917980;58;1142920;-77
2023/03/19 14:58:21;;;;;;;45.27;16.60;;;;;;;14.04;60.14;100624.61;4869982;58;1142953;-76
2023/03/19 15:03:36;;;;;;;25.93;13.03;;;;;;;14.04;59.51;100630.77;4840395;58;1142935;-77
2023/03/19 15:08:43;;;;;;;25.27;14.47;;;;;;;14.02;60.12;100619.42;4856127;59;1143077;-83
2023/03/19 15:14:40;;;;;;;30.50;14.90;;;;;;;14.06;59.97;100632.77;4895007;58;1142924;-82
2023/03/19 15:19:46;;;;;;;33.83;14.68;;;;;;;14.06;59.95;100629.27;4918309;58;1142859;-85
2023/03/19 15:24:53;;;;;;;28.03;14.23;;;;;;;14.02;59.92;100634.05;4889388;58;1143020;-76
2023/03/19 15:29:59;;;;;;;26.73;15.58;;;;;;;14.02;60.23;100624.75;4865758;58;1143170;-77
2023/03/19 15:35:07;;;;;;;44.27;23.83;;;;;;;14.03;60.82;100624.25;4872000;58;1143155;-77
2023/03/19 15:40:17;;;;;;;92.15;37.20;;;;;;;14.04;61.23;100618.80;4916725;58;1142994;-78
2023/03/19 15:45:24;;;;;;;82.73;48.47;;;;;;;14.03;61.31;100624.25;4874233;58;1143129;-78
2023/03/19 15:50:48;;;;;;;46.40;28.20;;;;;;;14.02;61.72;100623.91;4836615;58;1142864;-72
2023/03/19 15:56:21;;;;;;;33.73;16.67;;;;;;;14.01;61.87;100624.39;4839538;59;1142886;-77
2023/03/19 16:01:28;;;;;;;51.20;27.70;;;;;;;13.99;62.05;100623.69;4839989;59;1142931;-76
2023/03/19 16:06:39;;;;;;;57.55;30.35;;;;;;;13.98;62.54;100624.66;4917175;58;1142993;-77
2023/03/19 16:11:46;;;;;;;85.62;45.95;;;;;;;13.92;62.89;100629.68;4873804;58;1143219;-76
2023/03/19 16:17:01;;;;;;;49.60;25.83;;;;;;;14.00;63.36;100624.53;4933300;57;1143203;-79
2023/03/19 16:22:23;;;;;;;228.77;116.00;;;;;;;13.98;63.33;100629.14;4910494;57;1143115;-76
2023/03/19 16:27:41;;;;;;;48.33;24.70;;;;;;;13.92;62.73;100630.52;4941237;57;1147277;-76
2023/03/19 16:33:04;;;;;;;42.90;21.95;;;;;;;13.87;63.00;100635.92;4927048;57;1143016;-77
2023/03/19 16:38:24;;;;;;;38.67;19.82;;;;;;;13.84;63.66;100634.86;4927081;57;1142916;-77
2023/03/19 16:43:35;;;;;;;78.87;37.03;;;;;;;13.79;63.60;100637.91;4894038;58;1142924;-82
2023/03/19 16:48:42;;;;;;;69.50;32.83;;;;;;;13.75;65.05;100639.67;4970458;57;1143188;-67
2023/03/19 16:53:50;;;;;;;63.45;29.32;;;;;;;13.68;66.00;100642.02;4996148;57;1142972;-69
2023/03/19 16:58:56;;;;;;;89.80;33.53;;;;;;;13.58;66.63;100646.48;4997763;57;1142934;-69
2023/03/19 17:04:06;;;;;;;79.47;33.73;;;;;;;13.44;67.19;100642.87;4984987;57;1143180;-70
2023/03/19 17:09:12;;;;;;;67.60;32.87;;;;;;;13.30;67.65;100642.72;4905500;57;1143035;-71
2023/03/19 17:14:21;;;;;;;69.17;32.27;;;;;;;13.17;68.06;100652.72;4870646;57;1142796;-68
2023/03/19 17:19:31;;;;;;;68.15;30.82;;;;;;;13.07;68.72;100655.31;4817623;58;1142882;-68
2023/03/19 17:24:37;;;;;;;73.40;35.53;;;;;;;12.95;69.00;100665.17;4903401;58;1143069;-71
2023/03/19 17:29:43;;;;;;;94.95;38.38;;;;;;;12.77;69.35;100672.03;4824597;58;1143062;-72
2023/03/19 17:34:49;;;;;;;83.37;34.83;;;;;;;12.64;69.90;100672.71;4839706;58;1142946;-72
2023/03/19 17:39:54;;;;;;;85.33;39.47;;;;;;;12.52;70.43;100667.95;4963345;57;1142864;-71
2023/03/19 17:45:00;;;;;;;92.80;46.03;;;;;;;12.42;70.85;100674.97;4924115;57;1142797;-74
2023/03/19 17:50:07;;;;;;;94.07;42.83;;;;;;;12.23;70.93;100674.31;4976254;57;1143077;-70
2023/03/19 17:55:19;;;;;;;113.05;46.20;;;;;;;12.07;71.24;100673.06;4914053;57;1143113;-70
2023/03/19 18:00:25;;;;;;;116.47;49.83;;;;;;;11.88;71.87;100677.67;4886539;59;1145105;-71
2023/03/19 18:05:31;;;;;;;152.47;72.00;;;;;;;11.80;72.54;100674.30;4919296;58;1145053;-69
2023/03/19 18:10:37;;;;;;;158.27;73.93;;;;;;;11.71;72.87;100668.39;5017633;56;1145151;-68
2023/03/19 18:15:46;;;;;;;153.15;75.70;;;;;;;11.69;73.16;100666.34;5053467;56;1145160;-69
2023/03/19 18:20:52;;;;;;;134.27;71.20;;;;;;;11.59;73.62;100668.05;5055339;56;1145112;-74
2023/03/19 18:25:59;;;;;;;141.37;66.93;;;;;;;11.47;73.76;100673.81;4935041;58;1145188;-71
2023/03/19 18:31:07;;;;;;;116.25;59.83;;;;;;;11.31;74.11;100672.00;5050595;56;1145106;-69
2023/03/19 18:36:18;;;;;;;149.47;67.10;;;;;;;11.13;74.34;100671.66;5057938;56;1145116;-67
2023/03/19 18:41:27;;;;;;;142.33;70.03;;;;;;;11.03;74.76;100676.44;5041638;56;1145083;-70
2023/03/19 18:46:43;;;;;;;193.78;92.37;;;;;;;10.90;75.09;100670.77;4912657;58;1144907;-75
2023/03/19 18:51:50;;;;;;;206.20;103.22;;;;;;;10.83;75.39;100670.89;4947118;58;1145003;-70
2023/03/19 18:56:57;;;;;;;180.03;83.07;;;;;;;10.73;75.58;100660.63;5048784;56;1147062;-71
2023/03/19 19:02:30;;;;;;;181.70;82.23;;;;;;;10.56;76.02;100667.66;5079704;56;1145125;-70
2023/03/19 19:07:37;;;;;;;305.52;102.20;;;;;;;10.38;76.42;100667.27;5108019;56;1145046;-72
2023/03/19 19:12:46;;;;;;;204.18;82.17;;;;;;;10.25;77.07;100662.49;5015178;56;1147092;-73
2023/03/19 19:17:53;;;;;;;243.33;92.62;;;;;;;10.17;77.48;100669.64;4994443;57;1144997;-70
2023/03/19 19:22:59;;;;;;;237.57;89.40;;;;;;;10.11;77.96;100662.16;5027184;57;1145304;-71
2023/03/19 19:28:10;;;;;;;264.00;95.27;;;;;;;10.05;78.23;100667.06;4930727;58;1145113;-70
2023/03/19 19:33:19;;;;;;;264.30;97.33;;;;;;;10.03;78.60;100668.97;4972984;57;1144989;-73
2023/03/19 19:38:26;;;;;;;261.90;101.70;;;;;;;9.92;78.70;100671.56;4849232;58;1145263;-75
2023/03/19 19:43:32;;;;;;;292.17;107.93;;;;;;;9.61;79.36;100680.83;4967402;57;1262667;-74
2023/03/19 19:48:38;;;;;;;253.80;97.88;;;;;;;9.61;79.36;100680.83;4868973;57;1259044;-71
2023/03/19 19:53:45;;;;;;;261.85;102.85;;;;;;;9.60;79.40;100685.75;4930026;57;1141061;-70
2023/03/19 19:58:56;;;;;;;305.77;124.58;;;;;;;9.48;79.65;100695.35;4856244;57;1142959;-69
2023/03/19 20:04:04;;;;;;;247.17;97.23;;;;;;;9.47;80.37;100695.02;4893353;57;1142935;-72
2023/03/19 20:09:10;;;;;;;240.27;94.40;;;;;;;9.40;80.58;100695.91;5014301;57;1142899;-70
2023/03/19 20:14:16;;;;;;;266.82;105.78;;;;;;;9.40;80.98;100702.98;5024004;57;1143022;-68
2023/03/19 20:19:23;;;;;;;263.80;108.17;;;;;;;9.33;81.03;100706.98;4943405;57;1144951;-68
2023/03/19 20:24:29;;;;;;;246.17;94.57;;;;;;;9.36;81.74;100708.94;4952619;57;1145148;-71
2023/03/19 20:29:38;;;;;;;229.33;86.17;;;;;;;9.40;82.11;100714.38;5050550;57;1143045;-70
2023/03/19 20:34:43;;;;;;;260.00;103.72;;;;;;;9.38;81.96;100719.39;5032775;57;1145264;-69
2023/03/19 20:39:49;;;;;;;337.80;140.00;;;;;;;9.23;81.49;100719.98;5031964;57;1144961;-69
2023/03/19 20:45:00;;;;;;;262.80;113.37;;;;;;;9.10;81.91;100714.70;5043461;57;1145223;-75
2023/03/19 20:50:06;;;;;;;251.57;109.60;;;;;;;9.03;81.80;100721.33;5020586;57;1142904;-71
2023/03/19 20:55:16;;;;;;;232.73;96.20;;;;;;;8.90;82.08;100716.99;5026670;56;1142930;-72
2023/03/19 21:00:28;;;;;;;243.57;101.50;;;;;;;8.83;82.69;100719.69;5052322;57;1140933;-67
2023/03/19 21:05:39;;;;;;;278.70;111.10;;;;;;;8.69;82.50;100719.30;5031977;57;1142967;-72
2023/03/19 21:10:47;;;;;;;195.15;79.45;;;;;;;8.54;83.15;100707.97;5031593;57;1143044;-70
2023/03/19 21:15:53;;;;;;;202.70;77.50;;;;;;;8.36;83.09;100711.34;4978552;57;1142930;-68
2023/03/19 21:20:59;;;;;;;185.43;74.17;;;;;;;8.29;83.60;100706.52;4996434;56;1142961;-69
2023/03/19 21:26:17;;;;;;;207.87;79.87;;;;;;;8.37;84.25;100713.50;4960623;57;1142960;-72
2023/03/19 21:31:23;;;;;;;313.37;118.27;;;;;;;8.42;84.65;100704.33;4976788;57;1143185;-70
2023/03/19 21:36:29;;;;;;;274.50;103.40;;;;;;;8.37;84.31;100696.38;4958696;58;1145189;-68
2023/03/19 21:41:36;;;;;;;326.70;115.50;;;;;;;8.20;84.13;100696.59;4970146;57;1143164;-72
2023/03/19 21:46:42;;;;;;;289.20;105.75;;;;;;;8.12;84.15;100705.82;5022823;57;1144394;-72
2023/03/19 21:51:48;;;;;;;253.70;97.90;;;;;;;8.07;84.58;100695.23;5042363;57;1142979;-73
2023/03/19 21:56:54;;;;;;;240.12;90.67;;;;;;;8.00;84.66;100701.34;5022634;57;1140904;-72
2023/03/19 22:02:00;;;;;;;259.83;97.33;;;;;;;7.91;84.55;100705.05;5023087;57;1140797;-73
2023/03/19 22:07:06;;;;;;;258.53;99.63;;;;;;;7.76;84.80;100708.19;5038508;57;1140782;-74
2023/03/19 22:12:27;;;;;;;277.35;104.53;;;;;;;7.71;85.40;100707.14;5004507;57;1140870;-73
2023/03/19 22:17:34;;;;;;;337.30;125.23;;;;;;;7.66;85.76;100703.94;4958834;58;1142932;-66
2023/03/19 22:22:39;;;;;;;308.90;120.93;;;;;;;7.68;86.03;100701.22;4959139;57;1145035;-67
2023/03/19 22:27:48;;;;;;;233.17;88.87;;;;;;;7.64;86.05;100693.98;4978430;57;1145033;-73
2023/03/19 22:32:56;;;;;;;263.77;95.17;;;;;;;7.60;86.28;100696.92;4958964;58;1142853;-70
2023/03/19 22:38:02;;;;;;;244.37;102.00;;;;;;;7.55;86.50;100700.30;4959361;58;1140955;-71
2023/03/19 22:43:21;;;;;;;245.83;98.67;;;;;;;7.48;86.49;100701.16;4978545;57;1142923;-68
2023/03/19 22:48:27;;;;;;;317.43;125.93;;;;;;;7.47;86.99;100705.20;4959275;58;1141065;-73
2023/03/19 22:53:36;;;;;;;347.40;135.60;;;;;;;7.12;86.16;100701.62;4959144;58;1143026;-72
2023/03/19 22:58:45;;;;;;;281.57;114.17;;;;;;;6.92;87.27;100699.33;4939880;58;1142939;-72
2023/03/19 23:03:52;;;;;;;374.60;140.18;;;;;;;6.86;88.08;100690.50;4978645;58;1143060;-73